Cologne Bonn Airport


Codes: EDDK/CGN
Name: Cologne Bonn Airport
City: Cologne
Country: Germany
Elevation: 302 ft.
Wikipedia:

Photos at Cologne Bonn Airport


   Photos courtesy of SpottingLog. You can add your own sightings and photos by signing up for a free trial today.



EI-IHN, 13-Aug-2023
© Thomas Baynes

N626UP, 13-Aug-2023
© Thomas Baynes

N576UP, 13-Aug-2023
© Thomas Baynes

CN-NMO, 12-Aug-2023
© Thomas Baynes

TC-JTO, 07-Jul-2023
© J&J Spotting

T-O57, 08-May-2022
© Marcel Peters

TC-CPC, 08-May-2022
© Marcel Peters

TC-MCT, 08-May-2022
© Marcel Peters

UR-82027, 08-May-2022
© Marcel Peters

9H-QEP, 08-May-2022
© Marcel Peters

SP-SPA, 08-May-2022
© Marcel Peters

N625UP, 08-May-2022
© Marcel Peters


Weather at Cologne Bonn Airport


Time (UTC)DescriptionTempratureWindCloud coverageVisibilityPressureHumidity
17-Jun-2024 06:00Light Rain14°C4 mph, S33%10000m1010hPa92%
17-Jun-2024 09:00Light Rain16°C9 mph, SW56%10000m1011hPa86%
17-Jun-2024 12:00Light Rain18°C7 mph, NW85%10000m1013hPa77%
17-Jun-2024 15:00Light Rain20°C7 mph, NW99%10000m1013hPa69%
17-Jun-2024 18:00Light Rain18°C2 mph, W99%10000m1014hPa80%
17-Jun-2024 21:00Broken Clouds15°C0 mph, S82%10000m1015hPa89%
18-Jun-2024 00:00Broken Clouds14°C2 mph, SE79%10000m1015hPa94%
18-Jun-2024 03:00Overcast Clouds13°C2 mph, E99%10000m1015hPa94%
18-Jun-2024 06:00Overcast Clouds16°C4 mph, SE100%10000m1015hPa88%
18-Jun-2024 09:00Overcast Clouds21°C4 mph, SE100%10000m1015hPa68%
18-Jun-2024 12:00Light Rain22°C7 mph, SW100%4246m1014hPa82%
18-Jun-2024 15:00Light Rain19°C4 mph, NW100%10000m1013hPa92%
18-Jun-2024 18:00Light Rain17°C2 mph, NW100%10000m1013hPa96%
18-Jun-2024 21:00Light Rain15°C2 mph, NW100%10000m1015hPa99%
19-Jun-2024 00:00Overcast Clouds16°C4 mph, NW100%9521m1014hPa98%
19-Jun-2024 03:00Light Rain14°C7 mph, NW100%10000m1016hPa97%
19-Jun-2024 06:00Light Rain14°C4 mph, NW100%10000m1018hPa96%
19-Jun-2024 09:00Light Rain17°C7 mph, N98%10000m1019hPa78%
19-Jun-2024 12:00Light Rain21°C7 mph, NW86%10000m1019hPa51%
19-Jun-2024 15:00Few Clouds23°C7 mph, NW16%10000m1019hPa43%
19-Jun-2024 18:00Clear Sky20°C4 mph, NW9%10000m1020hPa60%
19-Jun-2024 21:00Clear Sky14°C4 mph, NE0%10000m1022hPa78%
20-Jun-2024 00:00Clear Sky12°C2 mph, E9%10000m1022hPa83%
20-Jun-2024 03:00Broken Clouds11°C2 mph, E80%10000m1022hPa87%
20-Jun-2024 06:00Overcast Clouds15°C4 mph, SE90%10000m1021hPa71%
20-Jun-2024 09:00Overcast Clouds21°C7 mph, E97%10000m1020hPa53%
20-Jun-2024 12:00Overcast Clouds22°C4 mph, S98%10000m1020hPa57%
20-Jun-2024 15:00Light Rain24°C9 mph, SE89%10000m1016hPa56%
20-Jun-2024 18:00Overcast Clouds22°C7 mph, SE95%10000m1014hPa64%
20-Jun-2024 21:00Light Rain18°C7 mph, SE96%10000m1014hPa93%
21-Jun-2024 00:00Light Rain18°C0 mph, SE98%10000m1012hPa96%
21-Jun-2024 03:00Light Rain18°C4 mph, E94%10000m1010hPa97%
21-Jun-2024 06:00Light Rain19°C4 mph, SE97%10000m1010hPa96%
21-Jun-2024 09:00Light Rain21°C7 mph, W67%10000m1011hPa80%
21-Jun-2024 12:00Light Rain21°C9 mph, SW84%9101m1011hPa84%
21-Jun-2024 15:00Light Rain21°C11 mph, W94%10000m1010hPa85%
21-Jun-2024 18:00Light Rain18°C9 mph, W98%10000m1012hPa86%
21-Jun-2024 21:00Light Rain15°C4 mph, SW95%10000m1013hPa92%
22-Jun-2024 00:00Light Rain14°C4 mph, S77%10000m1013hPa94%
22-Jun-2024 03:00Light Rain13°C4 mph, S60%10000m1014hPa96%